createdAt,value
2019-05-25T00:01:01.968Z,17.44
2019-05-25T00:03:31.467Z,17.31
2019-05-25T00:06:00.963Z,17.31
2019-05-25T00:08:30.485Z,17.34
2019-05-25T00:11:00.088Z,17.30
2019-05-25T00:13:29.596Z,17.34
2019-05-25T00:15:59.093Z,17.35
2019-05-25T00:18:28.611Z,17.31
2019-05-25T00:20:58.125Z,17.33
2019-05-25T00:23:27.629Z,17.30
2019-05-25T00:25:57.129Z,17.25
2019-05-25T00:28:26.628Z,17.25
2019-05-25T00:30:56.115Z,17.26
2019-05-25T00:33:26.685Z,17.19
2019-05-25T00:35:56.161Z,17.15
2019-05-25T00:38:25.926Z,17.14
2019-05-25T00:40:55.417Z,17.08
2019-05-25T00:43:24.913Z,17.05
2019-05-25T00:45:54.419Z,17.02
2019-05-25T00:48:23.929Z,17.01
2019-05-25T00:50:53.424Z,16.98
2019-05-25T00:53:22.934Z,16.92
2019-05-25T00:55:52.413Z,16.91
2019-05-25T00:58:21.906Z,16.88
2019-05-25T01:00:51.484Z,16.84
2019-05-25T01:03:20.992Z,16.83
2019-05-25T01:05:50.478Z,16.80
2019-05-25T01:08:20.000Z,16.78
2019-05-25T01:10:49.489Z,16.77
2019-05-25T01:13:19.031Z,16.79
2019-05-25T01:15:48.539Z,16.78
2019-05-25T01:18:18.064Z,16.66
2019-05-25T01:20:47.553Z,16.66
2019-05-25T01:23:17.124Z,16.66
2019-05-25T01:25:46.636Z,16.65
2019-05-25T01:28:17.116Z,16.60
2019-05-25T01:30:46.621Z,16.62
2019-05-25T01:33:16.105Z,16.62
2019-05-25T01:35:45.630Z,16.67
2019-05-25T01:38:15.390Z,16.73
2019-05-25T01:40:44.883Z,16.75
2019-05-25T01:43:14.382Z,16.72
2019-05-25T01:45:43.889Z,16.73
2019-05-25T01:48:13.369Z,16.75
2019-05-25T01:50:42.878Z,16.73
2019-05-25T01:53:12.390Z,16.73
2019-05-25T01:55:42.857Z,16.71
2019-05-25T01:58:12.355Z,16.38
2019-05-25T02:00:41.861Z,16.38
2019-05-25T02:03:11.359Z,16.70
2019-05-25T02:05:40.859Z,16.67
2019-05-25T02:08:10.353Z,16.70
2019-05-25T02:10:39.856Z,16.65
2019-05-25T02:13:09.368Z,16.68
2019-05-25T02:15:38.923Z,16.65
2019-05-25T02:18:08.374Z,16.71
2019-05-25T02:20:37.864Z,16.74
2019-05-25T02:23:07.353Z,16.77
2019-05-25T02:25:36.848Z,16.80
2019-05-25T02:28:06.332Z,16.79
2019-05-25T02:30:35.902Z,16.75
2019-05-25T02:33:05.410Z,16.75
2019-05-25T02:35:34.909Z,16.72
2019-05-25T02:38:04.399Z,16.72
2019-05-25T02:40:33.911Z,16.68
2019-05-25T02:43:03.400Z,16.68
2019-05-25T02:45:32.984Z,16.66
2019-05-25T02:48:02.480Z,16.64
2019-05-25T02:50:32.002Z,16.61
2019-05-25T02:53:01.496Z,16.46
2019-05-25T02:55:34.761Z,16.51
2019-05-25T02:58:02.318Z,16.44
2019-05-25T03:00:33.163Z,16.40
2019-05-25T03:03:03.051Z,16.37
2019-05-25T03:05:32.628Z,16.36
2019-05-25T03:08:02.870Z,16.39
2019-05-25T03:10:32.957Z,16.36
2019-05-25T03:13:03.037Z,16.38
2019-05-25T03:15:32.805Z,16.40
2019-05-25T03:18:02.399Z,16.45
2019-05-25T03:20:31.890Z,16.57
2019-05-25T03:23:01.475Z,16.58
2019-05-25T03:25:30.981Z,16.58
2019-05-25T03:28:00.497Z,16.58
2019-05-25T03:30:34.815Z,16.60
2019-05-25T03:33:04.382Z,16.67
2019-05-25T03:35:34.223Z,16.66
2019-05-25T03:38:03.737Z,16.71
2019-05-25T03:40:33.487Z,16.71
2019-05-25T03:43:03.060Z,16.68
2019-05-25T03:45:32.876Z,16.65
2019-05-25T03:48:02.450Z,16.71
2019-05-25T03:50:33.009Z,16.73
2019-05-25T03:53:02.513Z,16.70
2019-05-25T03:55:32.095Z,16.69
2019-05-25T03:58:01.591Z,16.71
2019-05-25T04:00:33.443Z,16.77
2019-05-25T04:03:03.026Z,16.78
2019-05-25T04:05:32.517Z,16.76
2019-05-25T04:08:02.074Z,16.74
2019-05-25T04:10:31.579Z,16.75
2019-05-25T04:13:01.062Z,16.76
2019-05-25T04:15:30.590Z,16.76
2019-05-25T04:18:00.090Z,16.80
2019-05-25T04:20:29.633Z,16.74
2019-05-25T04:22:59.132Z,16.71
2019-05-25T04:25:28.636Z,16.71
2019-05-25T04:27:58.136Z,16.69
2019-05-25T04:30:27.719Z,16.66
2019-05-25T04:32:57.217Z,16.62
2019-05-25T04:35:26.712Z,16.58
2019-05-25T04:37:56.191Z,16.48
2019-05-25T04:40:25.731Z,16.37
2019-05-25T04:42:56.316Z,16.34
2019-05-25T04:45:25.822Z,16.38
2019-05-25T04:47:55.432Z,16.36
2019-05-25T04:50:24.926Z,16.37
2019-05-25T04:52:54.432Z,16.32
2019-05-25T04:55:23.927Z,16.33
2019-05-25T04:57:53.434Z,16.33
2019-05-25T05:00:22.971Z,16.27
2019-05-25T05:02:52.465Z,16.32
2019-05-25T05:05:21.956Z,16.35
2019-05-25T05:07:51.461Z,16.33
2019-05-25T05:10:20.976Z,16.41
2019-05-25T05:12:50.490Z,16.41
2019-05-25T05:15:21.264Z,16.50
2019-05-25T05:17:50.841Z,16.48
2019-05-25T05:20:20.444Z,16.51
2019-05-25T05:22:49.963Z,16.50
2019-05-25T05:25:19.451Z,16.51
2019-05-25T05:27:48.966Z,16.44
2019-05-25T05:30:23.687Z,16.51
2019-05-25T05:32:53.194Z,16.55
2019-05-25T05:35:22.709Z,16.57
2019-05-25T05:37:52.297Z,16.57
2019-05-25T05:40:21.868Z,16.64
2019-05-25T05:42:53.149Z,16.57
2019-05-25T05:45:22.720Z,16.59
2019-05-25T05:47:53.002Z,16.58
2019-05-25T05:50:22.516Z,16.68
2019-05-25T05:52:53.993Z,16.67
2019-05-25T05:55:31.426Z,16.76
2019-05-25T05:58:01.731Z,16.76
2019-05-25T06:00:31.382Z,16.69
2019-05-25T06:03:00.876Z,16.65
2019-05-25T06:05:30.462Z,16.76
2019-05-25T06:07:59.959Z,16.64
2019-05-25T06:10:29.459Z,16.64
2019-05-25T06:12:58.980Z,16.64
2019-05-25T06:15:28.455Z,16.59
2019-05-25T06:17:58.929Z,16.64
2019-05-25T06:20:28.419Z,16.58
2019-05-25T06:22:57.924Z,16.52
2019-05-25T06:25:27.537Z,16.63
2019-05-25T06:27:56.984Z,16.72
2019-05-25T06:30:26.575Z,16.76
2019-05-25T06:32:56.165Z,16.79
2019-05-25T06:35:25.693Z,16.80
2019-05-25T06:37:55.234Z,16.62
2019-05-25T06:40:24.796Z,16.73
2019-05-25T06:42:54.351Z,16.71
2019-05-25T06:45:23.842Z,16.77
2019-05-25T06:47:53.338Z,16.85
2019-05-25T06:50:22.827Z,16.78
2019-05-25T06:52:52.336Z,16.70
2019-05-25T06:55:21.818Z,16.74
2019-05-25T06:57:51.318Z,16.85
2019-05-25T07:00:21.020Z,16.93
2019-05-25T07:02:50.524Z,16.95
2019-05-25T07:05:20.039Z,16.92
2019-05-25T07:07:49.538Z,16.94
2019-05-25T07:10:19.288Z,16.91
2019-05-25T07:12:48.787Z,16.98
2019-05-25T07:15:19.999Z,17.06
2019-05-25T07:17:49.533Z,17.18
2019-05-25T07:20:19.106Z,17.21
2019-05-25T07:22:48.878Z,17.23
2019-05-25T07:25:20.287Z,17.31
2019-05-25T07:27:58.685Z,17.45
2019-05-25T07:30:21.074Z,17.46
2019-05-25T07:32:50.576Z,17.24
2019-05-25T07:35:20.075Z,17.46
2019-05-25T07:37:49.585Z,17.52
2019-05-25T07:40:20.159Z,17.64
2019-05-25T07:42:49.644Z,17.80
2019-05-25T07:45:19.238Z,18.08
2019-05-25T07:47:48.741Z,18.20
2019-05-25T07:50:18.622Z,18.22
2019-05-25T07:52:48.135Z,18.09
2019-05-25T07:55:17.720Z,17.82
2019-05-25T07:57:47.209Z,17.88
2019-05-25T08:00:16.962Z,17.68
2019-05-25T08:02:46.474Z,17.70
2019-05-25T08:05:15.975Z,17.90
2019-05-25T08:07:45.476Z,18.09
2019-05-25T08:10:16.035Z,18.19
2019-05-25T08:12:45.525Z,18.15
2019-05-25T08:15:15.862Z,18.14
2019-05-25T08:17:45.366Z,17.83
2019-05-25T08:20:14.894Z,18.12
2019-05-25T08:22:44.406Z,18.21
2019-05-25T08:25:15.074Z,18.34
2019-05-25T08:27:44.566Z,18.07
2019-05-25T08:30:14.065Z,18.12
2019-05-25T08:32:43.549Z,18.35
2019-05-25T08:35:13.118Z,18.38
2019-05-25T08:37:42.622Z,18.48
2019-05-25T08:40:12.233Z,18.51
2019-05-25T08:42:41.774Z,18.72
2019-05-25T08:45:11.561Z,18.70
2019-05-25T08:47:41.071Z,18.77
2019-05-25T08:50:10.646Z,18.68
2019-05-25T08:52:40.148Z,18.77
2019-05-25T08:55:09.748Z,19.20
2019-05-25T08:57:39.304Z,19.28
2019-05-25T09:00:09.442Z,19.40
2019-05-25T09:02:38.866Z,19.26
2019-05-25T09:05:08.750Z,18.89
2019-05-25T09:07:38.255Z,19.05
2019-05-25T09:10:09.529Z,18.98
2019-05-25T09:12:39.113Z,19.02
2019-05-25T09:15:09.757Z,18.97
2019-05-25T09:17:39.241Z,18.62
2019-05-25T09:20:09.325Z,18.92
2019-05-25T09:22:38.804Z,19.46
2019-05-25T09:25:08.491Z,19.62
2019-05-25T09:27:38.013Z,19.64
2019-05-25T09:30:08.390Z,19.68
2019-05-25T09:32:38.021Z,19.67
2019-05-25T09:35:07.867Z,19.64
2019-05-25T09:37:37.465Z,19.70
2019-05-25T09:40:07.528Z,19.60
2019-05-25T09:42:37.091Z,19.51
2019-05-25T09:45:08.254Z,19.65
2019-05-25T09:47:38.667Z,19.73
2019-05-25T09:50:09.010Z,19.39
2019-05-25T09:52:38.608Z,19.64
2019-05-25T09:55:08.788Z,19.74
2019-05-25T09:57:41.438Z,19.57
2019-05-25T10:00:10.402Z,19.41
2019-05-25T10:02:39.986Z,19.41
2019-05-25T10:05:09.619Z,19.39
2019-05-25T10:07:39.106Z,19.32
2019-05-25T10:10:09.089Z,19.46
2019-05-25T10:12:38.616Z,19.11
2019-05-25T10:15:09.478Z,19.27
2019-05-25T10:17:38.986Z,19.42
2019-05-25T10:20:08.936Z,19.18
2019-05-25T10:22:38.437Z,19.27
2019-05-25T10:25:09.612Z,19.40
2019-05-25T10:27:39.140Z,19.68
2019-05-25T10:30:09.075Z,19.83
2019-05-25T10:32:38.569Z,19.84
2019-05-25T10:35:08.818Z,19.80
2019-05-25T10:37:38.362Z,19.79
2019-05-25T10:40:08.497Z,19.64
2019-05-25T10:42:37.967Z,19.28
2019-05-25T10:45:08.227Z,19.12
2019-05-25T10:47:37.734Z,19.08
2019-05-25T10:50:07.435Z,19.12
2019-05-25T10:52:36.936Z,19.10
2019-05-25T10:55:06.564Z,19.17
2019-05-25T10:57:36.082Z,18.43
2019-05-25T11:00:06.136Z,18.55
2019-05-25T11:02:35.630Z,18.73
2019-05-25T11:05:07.458Z,18.25
2019-05-25T11:07:37.511Z,18.63
2019-05-25T11:10:07.252Z,18.68
2019-05-25T11:12:36.851Z,18.95
2019-05-25T11:15:06.381Z,19.17
2019-05-25T11:17:35.935Z,19.41
2019-05-25T11:20:07.220Z,19.52
2019-05-25T11:22:36.723Z,19.31
2019-05-25T11:25:06.454Z,19.26
2019-05-25T11:27:35.987Z,18.95
2019-05-25T11:30:09.319Z,18.76
2019-05-25T11:32:37.334Z,18.77
2019-05-25T11:35:07.419Z,18.67
2019-05-25T11:37:37.909Z,19.01
2019-05-25T11:40:08.068Z,18.94
2019-05-25T11:42:37.564Z,19.09
2019-05-25T11:45:08.609Z,19.23
2019-05-25T11:47:38.134Z,19.36
2019-05-25T11:50:07.796Z,19.38
2019-05-25T11:52:37.324Z,19.45
2019-05-25T11:55:06.955Z,19.72
2019-05-25T11:57:36.457Z,19.96
2019-05-25T12:00:06.748Z,20.15
2019-05-25T12:02:36.265Z,20.04
2019-05-25T12:05:07.060Z,20.12
2019-05-25T12:07:36.585Z,19.98
2019-05-25T12:10:07.607Z,19.98
2019-05-25T12:12:37.198Z,20.09
2019-05-25T12:15:06.921Z,20.04
2019-05-25T12:17:36.431Z,20.16
2019-05-25T12:20:06.407Z,20.32
2019-05-25T12:22:35.924Z,20.20
2019-05-25T12:25:06.164Z,20.18
2019-05-25T12:27:35.780Z,20.04
2019-05-25T12:30:05.719Z,19.90
2019-05-25T12:32:35.366Z,19.83
2019-05-25T12:35:05.514Z,19.95
2019-05-25T12:37:35.411Z,20.05
2019-05-25T12:40:05.349Z,20.03
2019-05-25T12:42:34.878Z,20.08
2019-05-25T12:45:04.560Z,20.14
2019-05-25T12:47:34.098Z,20.37
2019-05-25T12:50:03.944Z,20.54
2019-05-25T12:52:33.468Z,20.63
2019-05-25T12:55:03.064Z,20.75
2019-05-25T12:57:32.581Z,20.83
2019-05-25T13:00:14.941Z,20.91
2019-05-25T13:02:33.396Z,20.85
2019-05-25T13:05:02.890Z,20.96
2019-05-25T13:07:32.410Z,20.98
2019-05-25T13:10:02.913Z,20.93
2019-05-25T13:12:33.422Z,20.74
2019-05-25T13:15:02.959Z,20.78
2019-05-25T13:17:32.439Z,20.60
2019-05-25T13:20:01.927Z,20.65
2019-05-25T13:22:31.512Z,20.77
2019-05-25T13:25:01.015Z,20.91
2019-05-25T13:27:30.528Z,20.79
2019-05-25T13:30:02.997Z,20.51
2019-05-25T13:32:31.253Z,20.56
2019-05-25T13:35:01.312Z,20.66
2019-05-25T13:37:30.834Z,20.65
2019-05-25T13:40:00.409Z,20.74
2019-05-25T13:42:29.910Z,20.84
2019-05-25T13:44:59.424Z,20.86
2019-05-25T13:47:28.934Z,20.56
2019-05-25T13:49:58.459Z,20.69
2019-05-25T13:52:28.022Z,20.64
2019-05-25T13:54:57.649Z,20.68
2019-05-25T13:57:27.183Z,20.81
2019-05-25T13:59:56.727Z,20.88
2019-05-25T14:02:26.298Z,20.95
2019-05-25T14:04:56.949Z,20.85
2019-05-25T14:07:26.472Z,20.98
2019-05-25T14:09:55.996Z,21.37
2019-05-25T14:12:25.532Z,21.64
2019-05-25T14:14:55.060Z,21.83
2019-05-25T14:17:25.673Z,21.94
2019-05-25T14:19:55.245Z,22.07
2019-05-25T14:22:25.742Z,22.09
2019-05-25T14:24:55.273Z,22.11
2019-05-25T14:27:24.805Z,22.02
2019-05-25T14:29:54.352Z,21.58
2019-05-25T14:32:23.870Z,22.26
2019-05-25T14:34:54.161Z,22.24
2019-05-25T14:37:23.657Z,21.90
2019-05-25T14:39:53.234Z,21.80
2019-05-25T14:42:22.817Z,21.48
2019-05-25T14:44:52.322Z,21.40
2019-05-25T14:47:21.835Z,21.59
2019-05-25T14:49:51.342Z,21.62
2019-05-25T14:52:20.906Z,21.68
2019-05-25T14:54:50.429Z,21.66
2019-05-25T14:57:20.075Z,21.64
2019-05-25T14:59:49.583Z,21.56
2019-05-25T15:02:19.079Z,21.64
2019-05-25T15:04:48.591Z,21.60
2019-05-25T15:07:18.116Z,21.59
2019-05-25T15:09:47.635Z,21.65
2019-05-25T15:12:18.124Z,21.63
2019-05-25T15:14:47.632Z,21.46
2019-05-25T15:17:17.134Z,21.36
2019-05-25T15:19:46.614Z,21.26
2019-05-25T15:22:16.248Z,21.06
2019-05-25T15:24:46.550Z,21.01
2019-05-25T15:27:16.047Z,20.75
2019-05-25T15:29:45.575Z,20.72
2019-05-25T15:32:20.145Z,20.71
2019-05-25T15:34:47.093Z,20.56
2019-05-25T15:37:16.611Z,20.48
2019-05-25T15:39:46.121Z,20.58
2019-05-25T15:42:15.626Z,20.91
2019-05-25T15:44:45.142Z,20.81
2019-05-25T15:47:14.654Z,20.93
2019-05-25T15:49:44.151Z,20.62
2019-05-25T15:52:13.737Z,20.38
2019-05-25T15:54:43.249Z,20.37
2019-05-25T15:57:12.751Z,20.75
2019-05-25T15:59:42.286Z,20.73
2019-05-25T16:02:11.964Z,20.62
2019-05-25T16:04:41.466Z,20.65
2019-05-25T16:07:10.984Z,20.53
2019-05-25T16:09:40.529Z,20.64
2019-05-25T16:12:10.030Z,20.56
2019-05-25T16:14:39.535Z,20.60
2019-05-25T16:17:09.038Z,20.74
2019-05-25T16:19:38.534Z,20.95
2019-05-25T16:22:08.055Z,21.00
2019-05-25T16:24:37.559Z,20.83
2019-05-25T16:27:07.064Z,20.88
2019-05-25T16:29:36.574Z,20.86
2019-05-25T16:32:06.078Z,20.95
2019-05-25T16:34:35.583Z,20.85
2019-05-25T16:37:05.200Z,20.51
2019-05-25T16:39:34.679Z,20.40
2019-05-25T16:42:04.227Z,20.50
2019-05-25T16:44:33.731Z,20.51
2019-05-25T16:47:03.230Z,20.57
2019-05-25T16:49:32.758Z,20.37
2019-05-25T16:52:02.279Z,20.09
2019-05-25T16:54:31.800Z,20.08
2019-05-25T16:57:01.304Z,19.98
2019-05-25T16:59:30.796Z,20.24
2019-05-25T17:02:00.311Z,20.38
2019-05-25T17:04:29.897Z,20.49
2019-05-25T17:06:59.386Z,20.60
2019-05-25T17:09:28.883Z,20.77
2019-05-25T17:11:58.426Z,20.67
2019-05-25T17:14:29.343Z,20.74
2019-05-25T17:16:58.884Z,20.64
2019-05-25T17:19:28.701Z,20.71
2019-05-25T17:21:58.204Z,20.47
2019-05-25T17:24:27.720Z,20.53
2019-05-25T17:26:57.240Z,20.37
2019-05-25T17:29:26.727Z,20.28
2019-05-25T17:31:56.260Z,20.23
2019-05-25T17:34:25.849Z,20.14
2019-05-25T17:36:55.382Z,20.29
2019-05-25T17:39:24.945Z,20.49
2019-05-25T17:41:54.458Z,20.54
2019-05-25T17:44:23.960Z,20.39
2019-05-25T17:46:53.471Z,20.27
2019-05-25T17:49:22.978Z,20.28
2019-05-25T17:51:52.479Z,20.23
2019-05-25T17:54:22.279Z,20.34
2019-05-25T17:56:51.793Z,20.19
2019-05-25T17:59:21.299Z,20.16
2019-05-25T18:01:50.820Z,20.11
2019-05-25T18:04:20.313Z,20.09
2019-05-25T18:06:49.847Z,20.12
2019-05-25T18:09:19.360Z,20.15
2019-05-25T18:11:48.874Z,20.14
2019-05-25T18:14:18.462Z,20.06
2019-05-25T18:16:47.967Z,20.17
2019-05-25T18:19:17.472Z,20.03
2019-05-25T18:21:47.920Z,19.88
2019-05-25T18:24:17.480Z,19.28
2019-05-25T18:26:46.981Z,19.76
2019-05-25T18:29:16.535Z,19.80
2019-05-25T18:31:46.073Z,19.78
2019-05-25T18:34:21.949Z,19.83
2019-05-25T18:36:46.859Z,19.77
2019-05-25T18:39:16.397Z,19.77
2019-05-25T18:41:46.002Z,19.81
2019-05-25T18:44:15.542Z,19.87
2019-05-25T18:46:45.110Z,19.85
2019-05-25T18:49:14.999Z,19.98
2019-05-25T18:51:44.784Z,19.98
2019-05-25T18:54:14.338Z,20.06
2019-05-25T18:56:43.864Z,20.03
2019-05-25T18:59:13.400Z,19.97
2019-05-25T19:01:42.957Z,19.92
2019-05-25T19:04:12.484Z,19.90
2019-05-25T19:06:42.005Z,19.93
2019-05-25T19:09:11.703Z,19.90
2019-05-25T19:11:41.241Z,19.89
2019-05-25T19:14:10.745Z,19.88
2019-05-25T19:16:40.291Z,19.81
2019-05-25T19:19:09.821Z,19.82
2019-05-25T19:21:39.351Z,19.79
2019-05-25T19:24:09.651Z,19.72
2019-05-25T19:26:39.122Z,19.70
2019-05-25T19:29:08.660Z,19.69
2019-05-25T19:31:39.166Z,19.64
2019-05-25T19:34:08.669Z,19.61
2019-05-25T19:36:38.178Z,19.58
2019-05-25T19:39:08.253Z,19.47
2019-05-25T19:41:37.790Z,19.39
2019-05-25T19:44:07.343Z,19.31
2019-05-25T19:46:36.920Z,19.26
2019-05-25T19:49:06.433Z,19.19
2019-05-25T19:51:35.961Z,19.20
2019-05-25T19:54:05.472Z,19.14
2019-05-25T19:56:34.987Z,19.02
2019-05-25T19:59:04.588Z,18.96
2019-05-25T20:01:34.148Z,18.93
2019-05-25T20:04:03.732Z,18.86
2019-05-25T20:06:33.257Z,18.80
2019-05-25T20:09:03.200Z,18.70
2019-05-25T20:11:32.748Z,18.62
2019-05-25T20:14:02.324Z,18.57
2019-05-25T20:16:31.909Z,18.48
2019-05-25T20:19:01.477Z,18.44
2019-05-25T20:21:30.965Z,18.41
2019-05-25T20:24:00.494Z,18.39
2019-05-25T20:26:30.019Z,18.29
2019-05-25T20:28:59.549Z,18.27
2019-05-25T20:31:29.058Z,18.18
2019-05-25T20:33:58.565Z,18.05
2019-05-25T20:36:28.088Z,18.07
2019-05-25T20:38:57.647Z,18.09
2019-05-25T20:41:27.197Z,18.04
2019-05-25T20:43:56.743Z,17.92
2019-05-25T20:46:26.268Z,17.89
2019-05-25T20:48:55.827Z,17.84
2019-05-25T20:51:25.394Z,17.73
2019-05-25T20:53:54.926Z,17.71
2019-05-25T20:56:24.526Z,17.61
2019-05-25T20:58:54.044Z,17.68
2019-05-25T21:01:23.543Z,17.65
2019-05-25T21:03:53.064Z,17.60
2019-05-25T21:06:22.605Z,17.47
2019-05-25T21:08:52.413Z,17.49
2019-05-25T21:11:22.069Z,17.32
2019-05-25T21:13:51.621Z,17.31
2019-05-25T21:16:21.204Z,17.25
2019-05-25T21:18:50.740Z,17.22
2019-05-25T21:21:20.287Z,17.17
2019-05-25T21:23:49.853Z,17.17
2019-05-25T21:26:19.381Z,17.10
2019-05-25T21:28:48.945Z,17.11
2019-05-25T21:31:18.466Z,17.05
2019-05-25T21:33:48.926Z,17.07
2019-05-25T21:36:18.501Z,17.06
2019-05-25T21:38:48.054Z,17.05
2019-05-25T21:41:17.670Z,17.02
2019-05-25T21:43:47.218Z,16.99
2019-05-25T21:46:16.740Z,16.99
2019-05-25T21:48:46.364Z,16.95
2019-05-25T21:51:15.892Z,16.84
2019-05-25T21:53:45.458Z,16.71
2019-05-25T21:56:15.954Z,16.68
2019-05-25T21:58:45.488Z,16.69
2019-05-25T22:01:15.165Z,16.64
2019-05-25T22:03:44.701Z,16.62
2019-05-25T22:06:24.013Z,16.64
2019-05-25T22:08:45.500Z,16.63
2019-05-25T22:11:15.987Z,16.63
2019-05-25T22:13:45.549Z,16.53
2019-05-25T22:16:15.060Z,16.39
2019-05-25T22:18:45.483Z,16.28
2019-05-25T22:21:15.064Z,16.11
2019-05-25T22:23:44.577Z,16.24
2019-05-25T22:26:14.114Z,16.21
2019-05-25T22:28:45.444Z,16.15
2019-05-25T22:31:15.028Z,16.03
2019-05-25T22:33:44.573Z,16.02
2019-05-25T22:36:14.067Z,15.89
2019-05-25T22:38:44.656Z,15.88
2019-05-25T22:41:14.160Z,15.92
2019-05-25T22:43:43.700Z,15.87
2019-05-25T22:46:13.221Z,15.88
2019-05-25T22:48:42.774Z,15.76
2019-05-25T22:51:12.288Z,15.77
2019-05-25T22:53:41.809Z,15.76
2019-05-25T22:56:11.310Z,15.82
2019-05-25T22:58:40.831Z,15.87
2019-05-25T23:01:10.369Z,15.85
2019-05-25T23:03:39.924Z,15.78
2019-05-25T23:06:10.427Z,15.75
2019-05-25T23:08:39.957Z,15.73
2019-05-25T23:11:09.463Z,15.74
2019-05-25T23:13:38.994Z,15.75
2019-05-25T23:16:12.252Z,15.77
2019-05-25T23:18:41.775Z,15.76
2019-05-25T23:21:11.328Z,15.74
2019-05-25T23:23:40.863Z,15.72
2019-05-25T23:26:10.407Z,15.70
2019-05-25T23:28:39.970Z,15.69
2019-05-25T23:31:09.543Z,15.65
2019-05-25T23:33:39.045Z,15.58
2019-05-25T23:36:08.567Z,15.53
2019-05-25T23:38:38.068Z,15.54
2019-05-25T23:41:07.633Z,15.35
2019-05-25T23:43:37.165Z,15.28
2019-05-25T23:46:06.735Z,15.29
2019-05-25T23:48:36.285Z,15.34
2019-05-25T23:51:06.971Z,15.19
2019-05-25T23:53:36.887Z,15.14
2019-05-25T23:56:06.431Z,15.18
2019-05-25T23:58:35.944Z,15.20
